createdAt,value
2018-07-07T00:00:52.936Z,12.28
2018-07-07T00:05:27.949Z,11.83
2018-07-07T00:10:02.382Z,11.83
2018-07-07T00:14:37.006Z,12.58
2018-07-07T00:19:11.259Z,13.43
2018-07-07T00:23:45.962Z,13.32
2018-07-07T00:28:20.596Z,12.78
2018-07-07T00:32:55.042Z,12.93
2018-07-07T00:37:29.060Z,12.68
2018-07-07T00:42:03.706Z,13.65
2018-07-07T00:46:38.077Z,13.03
2018-07-07T00:51:12.514Z,13.00
2018-07-07T00:55:46.933Z,14.45
2018-07-07T01:00:22.337Z,13.95
2018-07-07T01:04:57.769Z,13.95
2018-07-07T01:09:32.152Z,14.25
2018-07-07T01:14:06.927Z,14.28
2018-07-07T01:18:41.414Z,13.35
2018-07-07T01:23:15.964Z,13.32
2018-07-07T01:27:50.433Z,13.25
2018-07-07T01:32:24.913Z,12.88
2018-07-07T01:36:59.386Z,12.82
2018-07-07T01:41:33.819Z,13.28
2018-07-07T01:46:07.792Z,12.25
2018-07-07T01:50:42.361Z,12.00
2018-07-07T01:55:16.638Z,12.07
2018-07-07T01:59:50.970Z,12.25
2018-07-07T02:04:25.214Z,12.28
2018-07-07T02:08:59.674Z,12.60
2018-07-07T02:13:34.181Z,11.95
2018-07-07T02:18:08.513Z,12.05
2018-07-07T02:22:42.846Z,12.58
2018-07-07T02:27:17.285Z,12.18
2018-07-07T02:31:51.969Z,12.13
2018-07-07T02:36:27.071Z,12.07
2018-07-07T02:41:01.329Z,12.03
2018-07-07T02:45:35.674Z,12.88
2018-07-07T02:50:10.046Z,13.43
2018-07-07T02:54:44.743Z,12.95
2018-07-07T02:59:19.298Z,13.08
2018-07-07T03:03:54.018Z,13.55
2018-07-07T03:08:28.685Z,12.80
2018-07-07T03:13:03.180Z,12.60
2018-07-07T03:17:38.742Z,12.10
2018-07-07T03:22:13.225Z,12.37
2018-07-07T03:26:47.753Z,13.05
2018-07-07T03:31:22.145Z,13.83
2018-07-07T03:35:56.770Z,13.32
2018-07-07T03:40:31.361Z,14.13
2018-07-07T03:45:06.012Z,14.10
2018-07-07T03:49:40.490Z,14.93
2018-07-07T03:54:15.169Z,13.95
2018-07-07T03:58:49.876Z,14.90
2018-07-07T04:03:24.698Z,14.55
2018-07-07T04:07:58.885Z,13.15
2018-07-07T04:12:33.082Z,15.58
2018-07-07T04:17:07.305Z,13.25
2018-07-07T04:21:41.551Z,14.10
2018-07-07T04:26:16.190Z,12.60
2018-07-07T04:30:50.878Z,13.30
2018-07-07T04:35:25.373Z,12.33
2018-07-07T04:40:00.356Z,11.60
2018-07-07T04:44:34.908Z,12.58
2018-07-07T04:49:09.568Z,12.58
2018-07-07T04:53:43.900Z,12.60
2018-07-07T04:58:17.772Z,13.50
2018-07-07T05:02:52.745Z,12.80
2018-07-07T05:07:27.009Z,12.53
2018-07-07T05:12:01.586Z,13.28
2018-07-07T05:16:36.375Z,13.00
2018-07-07T05:21:11.197Z,14.28
2018-07-07T05:25:45.622Z,14.45
2018-07-07T05:30:20.146Z,14.05
2018-07-07T05:39:38.970Z,14.13
2018-07-07T05:44:13.366Z,14.25
2018-07-07T05:48:47.739Z,13.70
2018-07-07T05:53:22.225Z,15.40
2018-07-07T05:57:56.710Z,15.58
2018-07-07T06:02:31.350Z,16.00
2018-07-07T06:07:05.889Z,14.70
2018-07-07T06:11:40.428Z,16.97
2018-07-07T06:16:14.998Z,16.12
2018-07-07T06:20:49.387Z,16.87
2018-07-07T06:25:23.846Z,16.80
2018-07-07T06:29:58.378Z,17.15
2018-07-07T06:34:32.901Z,16.70
2018-07-07T06:39:07.987Z,17.48
2018-07-07T06:43:43.305Z,16.75
2018-07-07T06:48:17.818Z,17.55
2018-07-07T06:52:58.180Z,17.42
2018-07-07T06:57:32.567Z,17.73
2018-07-07T07:02:07.051Z,17.95
2018-07-07T07:06:41.502Z,17.32
2018-07-07T07:11:15.813Z,17.45
2018-07-07T07:15:50.374Z,15.95
2018-07-07T07:20:25.001Z,16.75
2018-07-07T07:24:59.457Z,14.95
2018-07-07T07:29:34.425Z,14.35
2018-07-07T07:34:09.249Z,13.03
2018-07-07T07:38:43.685Z,13.80
2018-07-07T07:43:18.223Z,12.90
2018-07-07T07:47:52.693Z,12.50
2018-07-07T07:52:27.111Z,11.88
2018-07-07T07:57:01.607Z,12.23
2018-07-07T08:01:36.425Z,10.13
2018-07-07T08:06:11.610Z,10.32
2018-07-07T08:10:45.960Z,9.25
2018-07-07T08:15:20.637Z,8.33
2018-07-07T08:19:55.072Z,8.00
2018-07-07T08:24:29.534Z,9.03
2018-07-07T08:29:03.904Z,8.18
2018-07-07T08:33:38.506Z,8.43
2018-07-07T08:38:13.220Z,8.80
2018-07-07T08:42:47.394Z,8.73
2018-07-07T08:47:21.904Z,8.58
2018-07-07T08:51:56.189Z,7.50
2018-07-07T08:56:30.671Z,7.33
2018-07-07T09:01:05.178Z,7.87
2018-07-07T09:05:39.653Z,6.12
2018-07-07T09:10:13.552Z,7.62
2018-07-07T09:14:47.826Z,7.25
2018-07-07T09:19:22.066Z,7.42
2018-07-07T09:23:56.800Z,6.92
2018-07-07T09:28:31.142Z,7.30
2018-07-07T09:33:05.501Z,6.58
2018-07-07T09:37:40.893Z,7.30
2018-07-07T09:42:14.924Z,6.55
2018-07-07T09:46:49.355Z,7.10
2018-07-07T09:51:23.705Z,7.72
2018-07-07T09:55:58.302Z,7.22
2018-07-07T10:00:37.820Z,7.15
2018-07-07T10:05:12.525Z,6.95
2018-07-07T10:09:46.937Z,7.78
2018-07-07T10:14:21.202Z,6.72
2018-07-07T10:18:55.848Z,6.62
2018-07-07T10:23:30.225Z,6.30
2018-07-07T10:28:04.658Z,7.60
2018-07-07T10:32:39.238Z,6.33
2018-07-07T10:37:13.750Z,7.15
2018-07-07T10:41:48.013Z,6.62
2018-07-07T10:46:22.359Z,6.50
2018-07-07T10:50:56.762Z,6.60
2018-07-07T10:55:30.969Z,6.60
2018-07-07T11:00:07.258Z,6.28
2018-07-07T11:04:41.494Z,5.92
2018-07-07T11:09:16.121Z,6.05
2018-07-07T11:13:50.670Z,6.20
2018-07-07T11:18:25.009Z,5.60
2018-07-07T11:22:59.394Z,6.45
2018-07-07T11:27:34.442Z,4.87
2018-07-07T11:32:08.866Z,4.97
2018-07-07T11:36:44.237Z,5.12
2018-07-07T11:41:21.135Z,5.62
2018-07-07T11:45:55.713Z,5.37
2018-07-07T11:50:30.207Z,4.45
2018-07-07T11:55:05.030Z,4.05
2018-07-07T11:59:38.944Z,4.50
2018-07-07T12:04:12.896Z,4.00
2018-07-07T12:08:47.661Z,3.80
2018-07-07T12:13:21.893Z,3.95
2018-07-07T12:18:03.347Z,3.95
2018-07-07T12:22:37.934Z,4.00
2018-07-07T12:27:12.152Z,5.05
2018-07-07T12:31:46.541Z,5.62
2018-07-07T12:36:21.006Z,4.62
2018-07-07T12:40:55.467Z,4.60
2018-07-07T12:45:29.834Z,4.80
2018-07-07T12:50:04.181Z,4.50
2018-07-07T12:54:39.110Z,4.12
2018-07-07T12:59:13.621Z,3.50
2018-07-07T13:03:48.147Z,4.00
2018-07-07T13:08:22.575Z,3.60
2018-07-07T13:12:56.869Z,3.47
2018-07-07T13:17:31.248Z,3.42
2018-07-07T13:22:05.687Z,2.92
2018-07-07T13:26:40.143Z,3.50
2018-07-07T13:31:14.485Z,3.67
2018-07-07T13:35:49.090Z,2.92
2018-07-07T13:40:23.688Z,3.37
2018-07-07T13:44:58.923Z,3.20
2018-07-07T13:49:33.242Z,3.37
2018-07-07T13:54:07.985Z,3.47
2018-07-07T13:58:42.594Z,3.80
2018-07-07T14:03:16.878Z,3.80
2018-07-07T14:07:50.745Z,3.75
2018-07-07T14:12:25.841Z,4.08
2018-07-07T14:17:00.445Z,4.10
2018-07-07T14:21:36.004Z,4.60
2018-07-07T14:26:10.617Z,4.50
2018-07-07T14:30:44.878Z,4.65
2018-07-07T14:35:20.045Z,4.83
2018-07-07T14:39:57.396Z,5.20
2018-07-07T14:44:31.877Z,4.37
2018-07-07T14:49:06.686Z,5.10
2018-07-07T14:53:41.066Z,6.40
2018-07-07T14:58:15.544Z,5.70
2018-07-07T15:02:50.384Z,5.95
2018-07-07T15:07:24.917Z,6.33
2018-07-07T15:12:03.299Z,6.30
2018-07-07T15:16:37.657Z,5.22
2018-07-07T15:21:12.039Z,5.00
2018-07-07T15:25:46.301Z,4.72
2018-07-07T15:30:20.856Z,3.72
2018-07-07T15:34:55.540Z,9.08
2018-07-07T15:39:30.030Z,4.08
2018-07-07T15:44:04.577Z,4.30
2018-07-07T15:48:39.005Z,4.58
2018-07-07T15:53:14.407Z,4.58
2018-07-07T15:57:48.818Z,4.72
2018-07-07T16:02:22.740Z,4.37
2018-07-07T16:06:56.568Z,4.55
2018-07-07T16:11:30.453Z,4.60
2018-07-07T16:16:05.434Z,4.45
2018-07-07T16:20:40.309Z,4.05
2018-07-07T16:25:14.808Z,4.40
2018-07-07T16:29:49.606Z,3.90
2018-07-07T16:34:24.286Z,3.83
2018-07-07T16:38:58.909Z,4.10
2018-07-07T16:43:33.391Z,4.05
2018-07-07T16:48:07.803Z,4.00
2018-07-07T16:52:43.766Z,3.95
2018-07-07T16:57:18.137Z,4.10
2018-07-07T17:01:53.802Z,3.47
2018-07-07T17:06:29.856Z,4.72
2018-07-07T17:11:06.677Z,3.40
2018-07-07T17:15:43.445Z,3.47
2018-07-07T17:20:18.090Z,3.52
2018-07-07T17:24:53.280Z,3.47
2018-07-07T17:29:28.325Z,3.40
2018-07-07T17:34:03.917Z,3.40
2018-07-07T17:38:39.165Z,3.50
2018-07-07T17:43:13.738Z,3.27
2018-07-07T17:47:48.171Z,3.30
2018-07-07T17:52:23.572Z,3.00
2018-07-07T17:56:58.501Z,3.20
2018-07-07T18:01:34.070Z,3.30
2018-07-07T18:06:08.820Z,3.30
2018-07-07T18:10:43.315Z,2.92
2018-07-07T18:15:17.737Z,2.90
2018-07-07T18:19:51.932Z,3.00
2018-07-07T18:24:26.873Z,3.00
2018-07-07T18:29:01.341Z,2.77
2018-07-07T18:33:35.771Z,3.00
2018-07-07T18:38:10.361Z,2.83
2018-07-07T18:42:44.830Z,3.20
2018-07-07T18:47:19.526Z,3.10
2018-07-07T18:51:53.937Z,3.10
2018-07-07T18:56:28.337Z,2.90
2018-07-07T19:01:02.830Z,2.72
2018-07-07T19:05:37.462Z,3.22
2018-07-07T19:10:11.882Z,3.42
2018-07-07T19:14:46.118Z,3.62
2018-07-07T19:19:20.504Z,4.50
2018-07-07T19:24:00.036Z,5.08
2018-07-07T19:28:34.325Z,5.78
2018-07-07T19:33:13.806Z,6.15
2018-07-07T19:37:48.037Z,5.47
2018-07-07T19:42:22.333Z,4.12
2018-07-07T19:46:56.638Z,3.65
2018-07-07T19:51:31.202Z,2.83
2018-07-07T19:56:05.564Z,3.15
2018-07-07T20:00:39.921Z,3.47
2018-07-07T20:05:14.672Z,5.65
2018-07-07T20:09:49.005Z,6.03
2018-07-07T20:14:27.510Z,5.50
2018-07-07T20:19:16.858Z,4.60
2018-07-07T20:23:53.284Z,4.90
2018-07-07T20:28:32.884Z,4.50
2018-07-07T20:33:07.549Z,4.67
2018-07-07T20:37:42.632Z,4.35
2018-07-07T20:42:19.028Z,4.60
2018-07-07T20:46:53.060Z,4.55
2018-07-07T20:51:27.783Z,4.28
2018-07-07T20:56:02.673Z,4.40
2018-07-07T21:00:37.361Z,4.33
2018-07-07T21:05:11.717Z,4.00
2018-07-07T21:09:46.330Z,4.50
2018-07-07T21:14:20.756Z,4.00
2018-07-07T21:18:55.918Z,4.20
2018-07-07T21:23:29.990Z,4.00
2018-07-07T21:28:04.516Z,4.58
2018-07-07T21:32:38.854Z,4.37
2018-07-07T21:37:13.481Z,4.62
2018-07-07T21:41:48.309Z,4.12
2018-07-07T21:46:23.177Z,4.00
2018-07-07T21:50:57.873Z,4.47
2018-07-07T21:55:32.061Z,4.00
2018-07-07T22:00:06.937Z,5.08
2018-07-07T22:04:46.554Z,4.60
2018-07-07T22:09:20.997Z,4.60
2018-07-07T22:13:55.497Z,4.62
2018-07-07T22:18:30.952Z,4.80
2018-07-07T22:23:06.046Z,5.35
2018-07-07T22:27:40.670Z,5.12
2018-07-07T22:32:22.823Z,4.80
2018-07-07T22:36:57.874Z,5.03
2018-07-07T22:41:59.001Z,6.12
2018-07-07T22:46:33.901Z,6.20
2018-07-07T22:51:07.821Z,5.62
2018-07-07T22:55:41.957Z,5.65
2018-07-07T23:00:16.630Z,5.70
2018-07-07T23:04:51.257Z,6.60
2018-07-07T23:09:25.595Z,5.83
2018-07-07T23:14:00.130Z,5.45
2018-07-07T23:18:34.988Z,5.67
2018-07-07T23:23:09.770Z,6.08
2018-07-07T23:27:44.165Z,5.62
2018-07-07T23:32:18.609Z,5.80
2018-07-07T23:36:53.553Z,5.70
2018-07-07T23:41:28.174Z,5.30
2018-07-07T23:46:02.749Z,5.58
2018-07-07T23:50:37.088Z,5.85
2018-07-07T23:55:11.278Z,6.42
2018-07-07T23:59:45.649Z,6.08
